Airfield :
LOGIN :

Register | Disclaimer

   EN    FR    IT 

 










Legend :    VFR   Marginal VFR   IFR   Intensive IFR   Very Intensive IFR
Visi :
Ceiling :
>= 8 km
>= 3000ft
5 to 8 km
1000 to 3000 ft
1500m to 5 km
500 to 1000 ft
800 to 1500m
200 to 500 ft
< 800m
< 200 ft
Symbols :   Thunderstorms  Fog  Heavy snow  Heavy precipitations  Wind > 20 kt
SIGMETs :     Misc.  Thunderstorms  Icing  Turbulence  Mountain Waves  Volcanic Ashes






- Airport Elevation : 2054 ft
- IATA code : RRS


ENRO - Røros

CURRENT METAR :
  • 221250Z 36006KT 300V060 9999 -SHRA BKN012 02/01 Q1016

EXPIRED METARs :
  • 221220Z 06004KT 020V090 9999 -RASN OVC011 02/02 Q1016
  • 221150Z VRB02KT 9999 BKN009 02/02 Q1016
  • 221050Z VRB03KT 9999 -DZ BKN009 02/02 Q1017
  • 221020Z VRB03KT 9999 -DZ BKN011 02/02 Q1017

TAF TAF ENRO
Valid from the 22 at 12:00 until the 22 at 20:00 UTC


221100Z 2212/2220 15008KT 9999 SCT008 BKN015
TEMPO 2212/2220 BKN008



MET'MAP, your aeronautical weather chart ! - Copyright ORBIFLY December 2007 - Disclaimer

ORBIFLY MET'MAP TEAM :

Programming & Development : Alexandra Zaïnal
Concept & Development : Baudouin d'Aumeries
Co-Development & Prog : Marc-Olivier Méhu
Technical & hardware support : Manuel Goepfert

Contact : metmap@orbifly.com




SOURCES & CREDITS :

   NOAA